createdAt,value
2024-05-09T00:01:56.141Z,99.99
2024-05-09T00:04:59.034Z,99.99
2024-05-09T00:08:01.779Z,99.99
2024-05-09T00:11:04.390Z,99.99
2024-05-09T00:14:06.830Z,99.99
2024-05-09T00:17:09.268Z,99.99
2024-05-09T00:20:17.865Z,99.99
2024-05-09T00:23:26.416Z,99.99
2024-05-09T00:26:28.684Z,99.99
2024-05-09T00:29:34.461Z,99.99
2024-05-09T00:32:36.907Z,99.99
2024-05-09T00:35:39.929Z,99.99
2024-05-09T00:38:42.324Z,99.99
2024-05-09T00:41:44.581Z,99.99
2024-05-09T00:44:46.838Z,99.99
2024-05-09T00:47:49.375Z,99.99
2024-05-09T00:50:54.161Z,99.99
2024-05-09T00:53:57.074Z,99.99
2024-05-09T00:56:59.517Z,99.99
2024-05-09T01:00:06.101Z,99.99
2024-05-09T01:03:12.892Z,99.99
2024-05-09T01:06:16.503Z,99.99
2024-05-09T01:09:18.873Z,99.99
2024-05-09T01:12:21.177Z,99.99
2024-05-09T01:15:23.859Z,99.99
2024-05-09T01:18:26.653Z,99.99
2024-05-09T01:21:29.028Z,99.99
2024-05-09T01:24:31.282Z,99.99
2024-05-09T01:27:33.775Z,99.99
2024-05-09T01:30:37.535Z,99.99
2024-05-09T01:33:40.562Z,99.99
2024-05-09T01:36:42.857Z,99.99
2024-05-09T01:39:45.268Z,99.99
2024-05-09T01:42:47.806Z,99.99
2024-05-09T01:45:50.022Z,99.99
2024-05-09T01:48:52.560Z,99.99
2024-05-09T01:51:54.813Z,99.99
2024-05-09T01:54:57.078Z,99.99
2024-05-09T01:57:59.244Z,99.99
2024-05-09T02:01:02.528Z,99.99
2024-05-09T02:04:04.935Z,99.99
2024-05-09T02:07:07.298Z,99.99
2024-05-09T02:10:16.197Z,99.99
2024-05-09T02:13:22.824Z,99.99
2024-05-09T02:16:25.075Z,99.99
2024-05-09T02:19:27.499Z,99.99
2024-05-09T02:22:29.769Z,99.99
2024-05-09T02:25:32.219Z,99.99
2024-05-09T02:28:34.580Z,99.99
2024-05-09T02:31:36.770Z,99.99
2024-05-09T02:34:39.067Z,99.99
2024-05-09T02:37:41.361Z,99.99
2024-05-09T02:40:43.611Z,99.99
2024-05-09T02:43:45.851Z,99.99
2024-05-09T02:46:48.122Z,99.99
2024-05-09T02:49:50.393Z,99.99
2024-05-09T02:52:52.608Z,99.99
2024-05-09T02:55:55.115Z,99.99
2024-05-09T02:58:57.448Z,99.99
2024-05-09T03:01:59.860Z,99.99
2024-05-09T03:05:02.132Z,99.99
2024-05-09T03:08:04.911Z,99.99
2024-05-09T03:11:07.537Z,99.99
2024-05-09T03:14:09.911Z,99.99
2024-05-09T03:17:12.442Z,99.99
2024-05-09T03:20:23.182Z,99.99
2024-05-09T03:23:26.740Z,99.99
2024-05-09T03:30:31.151Z,99.99
2024-05-09T03:33:42.653Z,99.99
2024-05-09T03:36:45.626Z,99.99
2024-05-09T03:39:47.890Z,99.99
2024-05-09T03:42:50.355Z,99.99
2024-05-09T03:45:52.570Z,99.99
2024-05-09T03:48:54.937Z,99.99
2024-05-09T03:51:57.274Z,99.99
2024-05-09T03:54:59.591Z,99.99
2024-05-09T03:58:01.914Z,99.99
2024-05-09T04:01:05.563Z,99.99
2024-05-09T04:04:09.358Z,99.99
2024-05-09T04:07:11.785Z,99.99
2024-05-09T04:10:23.659Z,99.99
2024-05-09T04:13:30.026Z,99.99
2024-05-09T04:16:32.323Z,99.99
2024-05-09T04:19:34.583Z,99.99
2024-05-09T04:22:36.825Z,99.99
2024-05-09T04:25:42.006Z,99.99
2024-05-09T04:28:44.327Z,99.99
2024-05-09T04:31:46.572Z,99.99
2024-05-09T04:34:48.798Z,99.99
2024-05-09T04:37:51.056Z,99.99
2024-05-09T04:40:53.404Z,99.99
2024-05-09T04:43:55.808Z,99.99
2024-05-09T04:46:58.105Z,99.99
2024-05-09T04:50:00.687Z,99.99
2024-05-09T04:53:06.213Z,99.99
2024-05-09T04:56:12.309Z,99.99
2024-05-09T04:59:15.749Z,99.99
2024-05-09T05:02:18.600Z,99.99
2024-05-09T05:05:21.413Z,99.99
2024-05-09T05:08:24.871Z,99.99
2024-05-09T05:11:28.969Z,99.99
2024-05-09T05:14:32.045Z,99.99
2024-05-09T05:17:35.217Z,99.99
2024-05-09T05:20:39.422Z,99.99
2024-05-09T05:23:42.297Z,99.99
2024-05-09T05:26:44.897Z,99.99
2024-05-09T05:29:47.497Z,99.99
2024-05-09T05:32:49.991Z,99.99
2024-05-09T05:35:52.361Z,99.99
2024-05-09T05:38:54.694Z,99.99
2024-05-09T05:41:56.872Z,99.99
2024-05-09T05:44:59.052Z,99.99
2024-05-09T05:48:04.224Z,99.99
2024-05-09T05:51:07.810Z,99.85
2024-05-09T05:54:10.023Z,99.71
2024-05-09T05:57:13.689Z,99.03
2024-05-09T06:00:25.950Z,98.86
2024-05-09T06:03:32.827Z,98.66
2024-05-09T06:06:35.225Z,98.13
2024-05-09T06:09:38.280Z,97.70
2024-05-09T06:12:40.700Z,96.86
2024-05-09T06:15:43.772Z,96.59
2024-05-09T06:18:47.029Z,96.84
2024-05-09T06:21:49.550Z,96.87
2024-05-09T06:24:52.224Z,96.17
2024-05-09T06:27:54.818Z,96.00
2024-05-09T06:30:57.019Z,94.76
2024-05-09T06:33:59.572Z,94.58
2024-05-09T06:37:01.863Z,94.73
2024-05-09T06:40:07.231Z,93.44
2024-05-09T06:43:13.681Z,93.10
2024-05-09T06:46:16.046Z,92.83
2024-05-09T06:49:18.434Z,93.68
2024-05-09T06:52:20.759Z,92.09
2024-05-09T06:55:23.018Z,91.49
2024-05-09T06:58:25.203Z,92.00
2024-05-09T07:01:27.448Z,90.59
2024-05-09T07:04:29.957Z,89.07
2024-05-09T07:07:32.181Z,90.17
2024-05-09T07:10:36.273Z,89.15
2024-05-09T07:13:39.264Z,87.96
2024-05-09T07:16:41.399Z,87.94
2024-05-09T07:19:43.743Z,87.39
2024-05-09T07:22:45.986Z,84.15
2024-05-09T07:25:48.333Z,83.86
2024-05-09T07:28:50.920Z,83.43
2024-05-09T07:31:53.389Z,82.47
2024-05-09T07:34:55.708Z,81.45
2024-05-09T07:37:58.042Z,79.49
2024-05-09T07:41:00.479Z,78.74
2024-05-09T07:44:02.866Z,76.12
2024-05-09T07:48:14.394Z,73.09
2024-05-09T07:53:40.961Z,72.31
2024-05-09T07:56:47.225Z,72.62
2024-05-09T07:59:49.458Z,72.85
2024-05-09T08:02:51.634Z,69.99
2024-05-09T08:05:54.591Z,70.12
2024-05-09T08:08:59.145Z,70.68
2024-05-09T08:12:03.008Z,67.08
2024-05-09T08:15:05.810Z,68.54
2024-05-09T08:18:13.018Z,64.12
2024-05-09T08:21:15.304Z,62.70
2024-05-09T08:24:17.627Z,60.37
2024-05-09T08:27:19.831Z,64.33
2024-05-09T08:30:29.616Z,60.71
2024-05-09T08:33:37.929Z,60.10
2024-05-09T08:36:40.890Z,58.95
2024-05-09T08:39:43.696Z,59.35
2024-05-09T08:42:49.927Z,58.65
2024-05-09T08:45:52.408Z,57.92
2024-05-09T08:48:57.023Z,54.89
2024-05-09T08:51:59.419Z,57.40
2024-05-09T08:55:01.979Z,57.77
2024-05-09T08:58:05.980Z,57.12
2024-05-09T09:01:08.814Z,55.61
2024-05-09T09:04:12.131Z,53.81
2024-05-09T09:07:15.229Z,56.98
2024-05-09T09:10:28.912Z,53.60
2024-05-09T09:13:33.946Z,54.92
2024-05-09T09:16:37.615Z,54.98
2024-05-09T09:19:40.546Z,54.87
2024-05-09T09:22:43.968Z,56.20
2024-05-09T09:25:46.219Z,52.97
2024-05-09T09:28:48.497Z,53.97
2024-05-09T09:32:00.445Z,53.74
2024-05-09T09:35:02.708Z,51.84
2024-05-09T09:38:06.947Z,51.74
2024-05-09T09:41:13.105Z,49.40
2024-05-09T09:44:17.583Z,50.88
2024-05-09T09:47:20.355Z,52.75
2024-05-09T09:50:31.333Z,51.36
2024-05-09T09:53:38.455Z,51.76
2024-05-09T09:56:41.913Z,51.78
2024-05-09T09:59:47.155Z,51.21
2024-05-09T10:02:49.501Z,52.52
2024-05-09T10:05:52.724Z,47.00
2024-05-09T10:08:55.623Z,50.33
2024-05-09T10:12:09.815Z,53.79
2024-05-09T10:15:12.297Z,49.45
2024-05-09T10:18:15.693Z,49.37
2024-05-09T10:21:21.533Z,47.93
2024-05-09T10:24:23.823Z,51.34
2024-05-09T10:27:30.436Z,48.91
2024-05-09T10:30:36.170Z,53.28
2024-05-09T10:33:51.602Z,50.53
2024-05-09T10:36:55.225Z,48.43
2024-05-09T10:39:58.490Z,49.33
2024-05-09T10:43:04.532Z,47.81
2024-05-09T10:46:09.972Z,49.89
2024-05-09T10:49:15.279Z,48.09
2024-05-09T10:52:24.489Z,47.69
2024-05-09T10:55:27.581Z,49.37
2024-05-09T10:58:29.900Z,47.21
2024-05-09T11:01:32.432Z,51.26
2024-05-09T11:04:34.992Z,48.32
2024-05-09T11:07:37.399Z,49.86
2024-05-09T11:10:40.560Z,47.14
2024-05-09T11:13:42.888Z,51.06
2024-05-09T11:16:45.221Z,46.68
2024-05-09T11:19:47.579Z,49.04
2024-05-09T11:22:49.786Z,44.53
2024-05-09T11:25:56.825Z,48.61
2024-05-09T11:28:59.007Z,46.85
2024-05-09T11:32:01.372Z,47.67
2024-05-09T11:35:03.572Z,47.15
2024-05-09T11:38:06.101Z,48.02
2024-05-09T11:41:08.266Z,46.16
2024-05-09T11:44:10.475Z,45.89
2024-05-09T11:47:12.682Z,42.57
2024-05-09T11:50:22.551Z,45.40
2024-05-09T11:53:31.735Z,46.46
2024-05-09T11:56:34.112Z,44.34
2024-05-09T11:59:36.413Z,45.46
2024-05-09T12:02:38.657Z,48.01
2024-05-09T12:05:41.337Z,46.72
2024-05-09T12:08:44.090Z,47.21
2024-05-09T12:11:46.403Z,47.27
2024-05-09T12:14:48.690Z,45.87
2024-05-09T12:17:51.198Z,47.27
2024-05-09T12:20:53.526Z,47.98
2024-05-09T12:23:55.752Z,47.06
2024-05-09T12:26:58.038Z,47.00
2024-05-09T12:30:00.252Z,44.80
2024-05-09T12:33:02.623Z,48.58
2024-05-09T12:36:05.043Z,45.26
2024-05-09T12:39:09.232Z,46.45
2024-05-09T12:42:14.534Z,45.97
2024-05-09T12:45:21.684Z,44.81
2024-05-09T12:48:24.180Z,45.41
2024-05-09T12:51:26.507Z,45.36
2024-05-09T12:54:28.872Z,46.64
2024-05-09T12:57:31.000Z,46.85
2024-05-09T13:00:34.362Z,46.64
2024-05-09T13:03:37.143Z,47.02
2024-05-09T13:06:39.720Z,46.47
2024-05-09T13:09:42.174Z,45.52
2024-05-09T13:12:44.390Z,48.65
2024-05-09T13:15:46.664Z,45.42
2024-05-09T13:18:49.226Z,45.17
2024-05-09T13:21:51.643Z,45.15
2024-05-09T13:24:53.681Z,48.60
2024-05-09T13:27:57.388Z,51.05
2024-05-09T13:30:59.877Z,52.17
2024-05-09T13:34:02.464Z,54.14
2024-05-09T13:37:04.709Z,53.71
2024-05-09T13:40:12.007Z,52.48
2024-05-09T13:43:17.605Z,50.51
2024-05-09T13:46:20.428Z,51.27
2024-05-09T13:49:22.579Z,50.61
2024-05-09T13:52:26.287Z,52.45
2024-05-09T13:55:28.478Z,50.70
2024-05-09T13:58:30.709Z,48.49
2024-05-09T14:01:33.008Z,47.69
2024-05-09T14:04:35.371Z,50.43
2024-05-09T14:07:37.687Z,46.56
2024-05-09T14:10:44.457Z,49.10
2024-05-09T14:13:47.394Z,48.84
2024-05-09T14:16:49.758Z,47.11
2024-05-09T14:19:52.111Z,47.22
2024-05-09T14:22:54.548Z,45.57
2024-05-09T14:25:56.973Z,46.53
2024-05-09T14:28:59.068Z,45.52
2024-05-09T14:32:02.867Z,44.34
2024-05-09T14:35:05.263Z,46.71
2024-05-09T14:38:09.146Z,47.22
2024-05-09T14:41:13.403Z,43.67
2024-05-09T14:44:15.615Z,47.97
2024-05-09T14:47:18.526Z,46.51
2024-05-09T14:50:28.054Z,47.98
2024-05-09T14:53:37.090Z,49.13
2024-05-09T14:56:39.297Z,46.16
2024-05-09T14:59:41.517Z,45.75
2024-05-09T15:02:43.733Z,47.19
2024-05-09T15:05:47.146Z,49.93
2024-05-09T15:08:56.885Z,50.18
2024-05-09T15:11:59.150Z,49.61
2024-05-09T15:15:01.326Z,51.62
2024-05-09T15:18:05.731Z,50.98
2024-05-09T15:21:08.310Z,50.61
2024-05-09T15:24:10.515Z,47.90
2024-05-09T15:27:13.092Z,51.01
2024-05-09T15:30:18.139Z,45.61
2024-05-09T15:33:23.008Z,47.16
2024-05-09T15:36:25.538Z,46.67
2024-05-09T15:39:30.420Z,46.13
2024-05-09T15:42:43.032Z,48.19
2024-05-09T15:45:48.041Z,48.62
2024-05-09T15:48:53.677Z,51.82
2024-05-09T15:51:56.550Z,50.79
2024-05-09T15:54:58.951Z,52.00
2024-05-09T15:58:02.648Z,53.92
2024-05-09T16:01:05.540Z,53.45
2024-05-09T16:04:09.948Z,54.90
2024-05-09T16:07:12.504Z,55.42
2024-05-09T16:10:20.258Z,54.99
2024-05-09T16:13:28.113Z,54.67
2024-05-09T16:16:30.361Z,51.59
2024-05-09T16:19:32.970Z,52.15
2024-05-09T16:22:37.870Z,50.27
2024-05-09T16:25:45.352Z,53.04
2024-05-09T16:28:48.942Z,51.15
2024-05-09T16:31:54.922Z,50.97
2024-05-09T16:34:57.140Z,50.65
2024-05-09T16:37:59.488Z,51.31
2024-05-09T16:41:01.806Z,50.90
2024-05-09T16:44:04.525Z,51.40
2024-05-09T16:47:06.610Z,52.29
2024-05-09T16:50:10.802Z,52.12
2024-05-09T16:53:19.344Z,52.54
2024-05-09T16:56:23.807Z,52.92
2024-05-09T16:59:26.246Z,53.63
2024-05-09T17:02:28.784Z,53.57
2024-05-09T17:05:31.297Z,52.72
2024-05-09T17:08:33.637Z,53.17
2024-05-09T17:11:36.072Z,52.83
2024-05-09T17:14:38.339Z,53.42
2024-05-09T17:17:40.893Z,54.02
2024-05-09T17:20:43.174Z,54.27
2024-05-09T17:23:45.517Z,54.81
2024-05-09T17:26:47.868Z,55.54
2024-05-09T17:29:50.926Z,54.19
2024-05-09T17:32:53.198Z,55.77
2024-05-09T17:35:55.535Z,56.22
2024-05-09T17:38:57.775Z,56.78
2024-05-09T17:42:00.023Z,57.42
2024-05-09T17:45:02.208Z,57.87
2024-05-09T17:48:05.045Z,58.24
2024-05-09T17:51:07.372Z,59.84
2024-05-09T17:54:09.633Z,60.18
2024-05-09T17:57:11.958Z,61.41
2024-05-09T18:00:17.467Z,61.54
2024-05-09T18:03:23.832Z,64.71
2024-05-09T18:06:26.214Z,66.42
2024-05-09T18:09:28.429Z,67.12
2024-05-09T18:12:30.672Z,69.24
2024-05-09T18:15:33.351Z,68.89
2024-05-09T18:18:36.152Z,69.59
2024-05-09T18:21:38.665Z,69.91
2024-05-09T18:24:41.221Z,70.85
2024-05-09T18:27:43.489Z,72.03
2024-05-09T18:30:45.867Z,72.16
2024-05-09T18:33:48.409Z,73.67
2024-05-09T18:36:50.868Z,72.33
2024-05-09T18:39:53.320Z,72.91
2024-05-09T18:42:55.692Z,74.05
2024-05-09T18:45:58.616Z,75.35
2024-05-09T18:49:01.246Z,75.57
2024-05-09T18:52:03.627Z,76.20
2024-05-09T18:55:06.628Z,76.94
2024-05-09T18:58:08.780Z,77.75
2024-05-09T19:01:11.687Z,79.01
2024-05-09T19:04:18.988Z,79.82
2024-05-09T19:07:21.887Z,80.32
2024-05-09T19:10:28.822Z,80.90
2024-05-09T19:13:35.585Z,80.92
2024-05-09T19:16:37.908Z,81.54
2024-05-09T19:19:40.355Z,81.90
2024-05-09T19:22:42.600Z,82.65
2024-05-09T19:25:44.792Z,82.26
2024-05-09T19:28:47.021Z,83.16
2024-05-09T19:31:49.636Z,84.06
2024-05-09T19:34:52.240Z,84.73
2024-05-09T19:37:54.839Z,84.55
2024-05-09T19:40:58.149Z,84.83
2024-05-09T19:44:02.049Z,84.57
2024-05-09T19:47:04.694Z,84.95
2024-05-09T19:50:13.881Z,85.45
2024-05-09T19:53:19.129Z,86.28
2024-05-09T19:56:24.409Z,86.54
2024-05-09T19:59:28.821Z,87.14
2024-05-09T20:02:34.362Z,87.73
2024-05-09T20:05:37.662Z,87.71
2024-05-09T20:08:40.543Z,87.65
2024-05-09T20:11:42.864Z,87.89
2024-05-09T20:14:45.159Z,87.76
2024-05-09T20:17:47.754Z,88.52
2024-05-09T20:20:53.380Z,89.07
2024-05-09T20:23:56.386Z,88.56
2024-05-09T20:26:58.683Z,88.22
2024-05-09T20:30:00.949Z,89.06
2024-05-09T20:33:05.024Z,88.56
2024-05-09T20:36:08.479Z,89.01
2024-05-09T20:39:10.615Z,89.12
2024-05-09T20:42:13.183Z,89.56
2024-05-09T20:45:15.586Z,89.30
2024-05-09T20:48:17.974Z,89.02
2024-05-09T20:51:20.233Z,89.28
2024-05-09T20:54:22.631Z,89.19
2024-05-09T20:57:25.078Z,89.99
2024-05-09T21:00:35.197Z,90.20
2024-05-09T21:03:42.291Z,90.13
2024-05-09T21:06:44.623Z,89.59
2024-05-09T21:09:47.816Z,90.91
2024-05-09T21:12:50.137Z,90.79
2024-05-09T21:15:52.344Z,90.88
2024-05-09T21:18:58.594Z,90.47
2024-05-09T21:22:00.818Z,91.65
2024-05-09T21:25:03.009Z,91.94
2024-05-09T21:28:05.755Z,92.07
2024-05-09T21:31:09.271Z,92.26
2024-05-09T21:34:11.873Z,92.74
2024-05-09T21:37:14.662Z,93.20
2024-05-09T21:40:27.026Z,93.27
2024-05-09T21:43:35.721Z,93.21
2024-05-09T21:46:37.996Z,93.49
2024-05-09T21:49:43.123Z,93.31
2024-05-09T21:52:45.396Z,94.02
2024-05-09T21:55:47.838Z,94.00
2024-05-09T21:58:50.174Z,94.28
2024-05-09T22:01:52.430Z,94.51
2024-05-09T22:04:54.749Z,94.87
2024-05-09T22:07:57.287Z,95.41
2024-05-09T22:10:59.904Z,95.46
2024-05-09T22:14:02.256Z,95.79
2024-05-09T22:17:04.830Z,94.99
2024-05-09T22:20:18.077Z,95.69
2024-05-09T22:23:24.507Z,95.53
2024-05-09T22:26:26.703Z,95.34
2024-05-09T22:29:28.880Z,95.33
2024-05-09T22:32:31.298Z,95.18
2024-05-09T22:35:33.564Z,95.86
2024-05-09T22:38:36.736Z,96.79
2024-05-09T22:41:41.046Z,96.90
2024-05-09T22:44:43.229Z,97.32
2024-05-09T22:47:45.983Z,96.89
2024-05-09T22:50:48.654Z,96.78
2024-05-09T22:53:50.957Z,97.11
2024-05-09T22:56:53.648Z,97.70
2024-05-09T22:59:55.854Z,97.35
2024-05-09T23:02:58.109Z,97.53
2024-05-09T23:06:00.534Z,97.94
2024-05-09T23:09:03.074Z,98.35
2024-05-09T23:12:05.780Z,98.50
2024-05-09T23:15:08.221Z,98.51
2024-05-09T23:18:10.746Z,98.74
2024-05-09T23:21:13.161Z,98.83
2024-05-09T23:24:15.342Z,98.93
2024-05-09T23:27:17.783Z,99.29
2024-05-09T23:30:29.215Z,99.30
2024-05-09T23:33:46.124Z,99.44
2024-05-09T23:36:48.568Z,99.74
2024-05-09T23:39:50.825Z,99.99
2024-05-09T23:42:53.008Z,99.99
2024-05-09T23:45:55.454Z,99.99
2024-05-09T23:48:57.905Z,99.99
2024-05-09T23:52:00.287Z,99.99
2024-05-09T23:55:02.629Z,99.99
2024-05-09T23:58:05.105Z,99.99
